createdAt,value
2023-03-27T00:01:26.189Z,62.20
2023-03-27T00:03:53.711Z,62.20
2023-03-27T00:06:22.228Z,62.00
2023-03-27T00:08:51.286Z,62.40
2023-03-27T00:11:20.465Z,62.50
2023-03-27T00:13:51.302Z,62.60
2023-03-27T00:16:24.414Z,62.80
2023-03-27T00:18:51.768Z,62.80
2023-03-27T00:21:19.613Z,62.90
2023-03-27T00:23:47.179Z,63.30
2023-03-27T00:26:14.521Z,63.50
2023-03-27T00:28:42.366Z,63.60
2023-03-27T00:31:14.071Z,64.20
2023-03-27T00:33:41.952Z,64.50
2023-03-27T00:36:10.494Z,64.80
2023-03-27T00:38:39.989Z,65.20
2023-03-27T00:41:09.305Z,66.50
2023-03-27T00:43:42.580Z,67.00
2023-03-27T00:46:16.089Z,68.00
2023-03-27T00:48:47.392Z,69.60
2023-03-27T00:51:16.801Z,72.00
2023-03-27T00:53:45.949Z,73.20
2023-03-27T00:56:13.657Z,75.60
2023-03-27T00:58:44.984Z,78.40
2023-03-27T01:01:15.205Z,79.90
2023-03-27T01:03:47.277Z,83.10
2023-03-27T01:06:17.333Z,89.30
2023-03-27T01:08:46.914Z,94.30
2023-03-27T01:11:28.559Z,99.90
2023-03-27T01:14:21.474Z,99.90
2023-03-27T01:17:10.411Z,99.90
2023-03-27T01:20:20.466Z,99.90
2023-03-27T01:23:35.762Z,99.90
2023-03-27T01:26:57.669Z,99.90
2023-03-27T01:29:39.810Z,99.90
2023-03-27T01:32:22.220Z,99.90
2023-03-27T01:35:20.463Z,99.90
2023-03-27T01:38:03.981Z,99.90
2023-03-27T01:40:48.579Z,99.90
2023-03-27T01:43:27.073Z,99.90
2023-03-27T01:46:06.916Z,99.90
2023-03-27T01:48:50.714Z,99.90
2023-03-27T01:51:25.527Z,99.90
2023-03-27T01:54:12.438Z,99.90
2023-03-27T01:56:54.049Z,99.90
2023-03-27T01:59:27.407Z,99.90
2023-03-27T02:02:04.003Z,99.90
2023-03-27T02:04:43.653Z,99.90
2023-03-27T02:07:15.785Z,99.90
2023-03-27T02:09:50.209Z,99.90
2023-03-27T02:12:32.623Z,99.90
2023-03-27T02:15:23.199Z,99.90
2023-03-27T02:18:05.538Z,99.90
2023-03-27T02:20:34.699Z,99.90
2023-03-27T02:23:02.264Z,99.90
2023-03-27T02:25:33.263Z,99.90
2023-03-27T02:28:34.936Z,99.90
2023-03-27T02:31:34.023Z,99.90
2023-03-27T02:34:22.634Z,99.90
2023-03-27T02:37:08.136Z,99.90
2023-03-27T02:39:35.147Z,99.90
2023-03-27T02:42:10.818Z,99.90
2023-03-27T02:45:00.641Z,99.90
2023-03-27T02:47:42.812Z,99.90
2023-03-27T02:50:30.781Z,99.90
2023-03-27T02:53:01.896Z,99.90
2023-03-27T02:55:37.674Z,99.90
2023-03-27T02:58:09.260Z,99.90
2023-03-27T03:00:42.100Z,99.90
2023-03-27T03:03:28.514Z,99.90
2023-03-27T03:05:57.318Z,99.90
2023-03-27T03:08:25.331Z,99.90
2023-03-27T03:10:52.459Z,99.90
2023-03-27T03:13:19.912Z,99.90
2023-03-27T03:15:47.910Z,99.90
2023-03-27T03:18:16.598Z,99.90
2023-03-27T03:20:44.595Z,99.90
2023-03-27T03:23:11.746Z,99.90
2023-03-27T03:25:39.528Z,99.90
2023-03-27T03:28:08.287Z,99.90
2023-03-27T03:30:35.502Z,99.90
2023-03-27T03:33:02.686Z,99.90
2023-03-27T03:35:29.906Z,99.90
2023-03-27T03:37:57.930Z,99.90
2023-03-27T03:40:25.017Z,99.90
2023-03-27T03:42:52.916Z,99.90
2023-03-27T03:45:20.566Z,99.90
2023-03-27T03:47:47.748Z,99.90
2023-03-27T03:50:15.626Z,99.90
2023-03-27T03:52:42.765Z,99.90
2023-03-27T03:55:13.067Z,99.90
2023-03-27T03:57:40.929Z,99.90
2023-03-27T04:00:14.420Z,99.90
2023-03-27T04:02:43.694Z,99.90
2023-03-27T04:05:10.813Z,99.90
2023-03-27T04:07:40.298Z,99.90
2023-03-27T04:10:08.808Z,99.90
2023-03-27T04:12:35.929Z,99.90
2023-03-27T04:15:03.177Z,99.90
2023-03-27T04:17:30.315Z,99.90
2023-03-27T04:20:00.153Z,99.90
2023-03-27T04:22:27.274Z,99.90
2023-03-27T04:24:54.436Z,99.90
2023-03-27T04:27:21.605Z,99.90
2023-03-27T04:29:48.702Z,99.90
2023-03-27T04:32:19.440Z,99.90
2023-03-27T04:34:48.424Z,99.90
2023-03-27T04:37:15.510Z,99.90
2023-03-27T04:39:46.493Z,99.90
2023-03-27T04:42:16.720Z,99.90
2023-03-27T04:44:46.203Z,99.90
2023-03-27T04:47:13.526Z,99.90
2023-03-27T04:49:42.533Z,99.90
2023-03-27T04:52:10.031Z,99.90
2023-03-27T04:54:37.133Z,99.90
2023-03-27T04:57:04.664Z,99.90
2023-03-27T04:59:32.145Z,99.90
2023-03-27T05:02:01.683Z,99.90
2023-03-27T05:04:29.684Z,99.90
2023-03-27T05:06:59.012Z,99.90
2023-03-27T05:09:26.625Z,99.90
2023-03-27T05:11:53.757Z,99.90
2023-03-27T05:14:23.161Z,99.90
2023-03-27T05:16:52.442Z,99.90
2023-03-27T05:19:20.656Z,99.90
2023-03-27T05:21:48.141Z,99.90
2023-03-27T05:24:15.793Z,99.90
2023-03-27T05:26:43.479Z,99.90
2023-03-27T05:29:10.711Z,99.90
2023-03-27T05:31:38.351Z,99.90
2023-03-27T05:34:06.199Z,99.90
2023-03-27T05:36:35.723Z,99.90
2023-03-27T05:39:03.050Z,99.90
2023-03-27T05:41:30.330Z,99.90
2023-03-27T05:43:57.452Z,99.90
2023-03-27T05:46:24.787Z,99.90
2023-03-27T05:48:52.449Z,99.90
2023-03-27T05:51:19.535Z,99.90
2023-03-27T05:53:47.026Z,99.90
2023-03-27T05:56:14.143Z,99.90
2023-03-27T05:58:41.740Z,99.90
2023-03-27T06:01:11.264Z,99.90
2023-03-27T06:03:38.873Z,99.90
2023-03-27T06:06:11.076Z,99.90
2023-03-27T06:08:38.702Z,99.90
2023-03-27T06:11:12.832Z,99.90
2023-03-27T06:13:39.993Z,99.90
2023-03-27T06:16:08.394Z,99.90
2023-03-27T06:18:35.749Z,99.90
2023-03-27T06:21:03.446Z,99.90
2023-03-27T06:23:30.536Z,99.90
2023-03-27T06:25:58.823Z,99.90
2023-03-27T06:28:26.097Z,99.90
2023-03-27T06:30:53.271Z,99.90
2023-03-27T06:33:21.728Z,99.90
2023-03-27T06:35:52.872Z,99.90
2023-03-27T06:38:21.344Z,99.90
2023-03-27T06:40:48.612Z,99.90
2023-03-27T06:43:19.128Z,99.90
2023-03-27T06:45:49.231Z,99.90
2023-03-27T06:48:21.458Z,99.90
2023-03-27T06:50:50.256Z,99.90
2023-03-27T06:55:49.212Z,99.90
2023-03-27T06:58:19.270Z,99.90
2023-03-27T07:00:49.092Z,99.90
2023-03-27T07:03:18.114Z,99.90
2023-03-27T07:05:45.772Z,99.90
2023-03-27T07:10:50.604Z,99.90
2023-03-27T07:13:23.794Z,99.90
2023-03-27T07:15:51.988Z,99.90
2023-03-27T07:18:19.288Z,99.90
2023-03-27T07:20:48.185Z,99.90
2023-03-27T07:23:15.204Z,99.90
2023-03-27T07:25:42.551Z,99.90
2023-03-27T07:28:15.052Z,99.90
2023-03-27T07:30:42.539Z,99.90
2023-03-27T07:33:10.661Z,99.90
2023-03-27T07:35:45.959Z,99.90
2023-03-27T07:38:14.538Z,99.90
2023-03-27T07:40:44.332Z,99.90
2023-03-27T07:43:11.859Z,99.90
2023-03-27T07:45:39.001Z,99.90
2023-03-27T07:48:16.371Z,99.90
2023-03-27T07:50:43.942Z,99.90
2023-03-27T07:53:32.864Z,99.90
2023-03-27T07:56:00.994Z,99.90
2023-03-27T07:58:28.341Z,99.90
2023-03-27T08:01:02.699Z,99.90
2023-03-27T08:03:31.041Z,99.90
2023-03-27T08:06:00.166Z,99.90
2023-03-27T08:08:28.453Z,99.90
2023-03-27T08:10:57.120Z,99.90
2023-03-27T08:13:24.559Z,99.90
2023-03-27T08:15:51.867Z,99.90
2023-03-27T08:18:19.187Z,99.90
2023-03-27T08:20:47.970Z,99.90
2023-03-27T08:23:15.489Z,99.90
2023-03-27T08:25:43.049Z,99.90
2023-03-27T08:28:10.101Z,99.90
2023-03-27T08:30:37.283Z,99.90
2023-03-27T08:33:04.462Z,99.90
2023-03-27T08:35:31.798Z,99.90
2023-03-27T08:37:58.992Z,99.90
2023-03-27T08:40:29.738Z,99.90
2023-03-27T08:43:00.772Z,99.90
2023-03-27T08:45:41.522Z,99.90
2023-03-27T08:48:23.562Z,99.90
2023-03-27T08:51:04.603Z,99.90
2023-03-27T08:53:40.312Z,99.90
2023-03-27T08:56:16.355Z,99.90
2023-03-27T08:58:44.564Z,99.90
2023-03-27T09:01:41.334Z,99.90
2023-03-27T09:04:26.710Z,99.90
2023-03-27T09:07:08.841Z,99.90
2023-03-27T09:09:46.919Z,99.90
2023-03-27T09:12:19.894Z,99.90
2023-03-27T09:14:53.609Z,99.90
2023-03-27T09:17:47.661Z,99.90
2023-03-27T09:20:36.572Z,99.90
2023-03-27T09:23:12.872Z,99.90
2023-03-27T09:25:51.776Z,99.90
2023-03-27T09:28:27.058Z,99.90
2023-03-27T09:30:54.315Z,99.90
2023-03-27T09:33:21.373Z,99.90
2023-03-27T09:35:48.750Z,99.90
2023-03-27T09:38:52.845Z,99.90
2023-03-27T09:41:31.788Z,99.90
2023-03-27T09:44:11.846Z,99.90
2023-03-27T09:46:47.613Z,99.90
2023-03-27T09:49:21.341Z,99.90
2023-03-27T09:51:53.971Z,99.90
2023-03-27T09:54:23.952Z,99.90
2023-03-27T09:56:55.070Z,99.90
2023-03-27T09:59:40.024Z,99.90
2023-03-27T10:02:22.372Z,99.90
2023-03-27T10:05:15.758Z,99.90
2023-03-27T10:07:43.834Z,99.90
2023-03-27T10:10:20.274Z,99.90
2023-03-27T10:12:58.532Z,99.90
2023-03-27T10:15:35.351Z,98.70
2023-03-27T10:18:20.762Z,97.70
2023-03-27T10:20:53.262Z,96.80
2023-03-27T10:23:29.252Z,95.20
2023-03-27T10:26:01.937Z,94.60
2023-03-27T10:28:36.640Z,93.90
2023-03-27T10:31:06.780Z,91.30
2023-03-27T10:33:35.467Z,91.60
2023-03-27T10:36:04.756Z,91.90
2023-03-27T10:38:33.611Z,92.10
2023-03-27T10:41:05.166Z,93.20
2023-03-27T10:43:42.801Z,93.60
2023-03-27T10:46:38.624Z,95.00
2023-03-27T10:49:25.737Z,95.00
2023-03-27T10:51:58.651Z,94.80
2023-03-27T10:54:37.767Z,95.10
2023-03-27T10:57:08.539Z,97.30
2023-03-27T10:59:51.771Z,99.90
2023-03-27T11:02:57.757Z,99.90
2023-03-27T11:05:30.586Z,99.90
2023-03-27T11:08:08.780Z,99.90
2023-03-27T11:10:42.899Z,99.20
2023-03-27T11:13:32.610Z,99.60
2023-03-27T11:16:16.022Z,98.00
2023-03-27T11:18:51.828Z,94.70
2023-03-27T11:21:26.362Z,93.70
2023-03-27T11:23:56.795Z,96.00
2023-03-27T11:26:37.326Z,96.60
2023-03-27T11:29:16.074Z,95.10
2023-03-27T11:31:53.421Z,96.60
2023-03-27T11:34:57.690Z,94.60
2023-03-27T11:37:39.915Z,95.00
2023-03-27T11:40:21.826Z,95.50
2023-03-27T11:42:51.482Z,99.90
2023-03-27T11:45:24.362Z,99.90
2023-03-27T11:48:11.099Z,99.90
2023-03-27T11:50:48.815Z,99.90
2023-03-27T11:53:40.227Z,97.70
2023-03-27T11:56:19.571Z,94.10
2023-03-27T11:59:05.396Z,92.00
2023-03-27T12:01:44.789Z,91.00
2023-03-27T12:04:40.502Z,83.70
2023-03-27T12:07:36.585Z,81.30
2023-03-27T12:10:33.230Z,78.50
2023-03-27T12:13:41.078Z,80.90
2023-03-27T12:16:31.275Z,86.50
2023-03-27T12:19:17.352Z,89.90
2023-03-27T12:25:23.271Z,99.90
2023-03-27T12:28:23.112Z,99.90
2023-03-27T12:30:59.014Z,99.90
2023-03-27T12:33:45.575Z,99.90
2023-03-27T12:36:17.843Z,99.90
2023-03-27T12:38:45.418Z,99.90
2023-03-27T12:41:22.262Z,99.90
2023-03-27T12:43:58.751Z,99.90
2023-03-27T12:46:28.964Z,99.90
2023-03-27T12:49:08.304Z,99.90
2023-03-27T12:51:38.890Z,99.90
2023-03-27T12:54:27.552Z,99.90
2023-03-27T12:57:18.252Z,99.90
2023-03-27T13:00:10.536Z,99.90
2023-03-27T13:02:56.638Z,99.90
2023-03-27T13:05:36.376Z,99.90
2023-03-27T13:08:37.711Z,99.90
2023-03-27T13:11:13.487Z,96.80
2023-03-27T13:13:43.176Z,96.00
2023-03-27T13:16:28.584Z,95.00
2023-03-27T13:19:05.500Z,95.70
2023-03-27T13:21:39.138Z,96.00
2023-03-27T13:24:43.912Z,95.70
2023-03-27T13:27:19.698Z,95.50
2023-03-27T13:29:51.944Z,94.30
2023-03-27T13:32:32.610Z,95.80
2023-03-27T13:35:11.272Z,93.10
2023-03-27T13:37:52.028Z,92.80
2023-03-27T13:40:47.777Z,90.90
2023-03-27T13:43:18.216Z,90.20
2023-03-27T13:45:49.945Z,90.00
2023-03-27T13:48:54.115Z,87.20
2023-03-27T13:51:34.181Z,87.40
2023-03-27T13:54:35.661Z,83.80
2023-03-27T13:57:17.468Z,82.40
2023-03-27T13:59:50.170Z,81.10
2023-03-27T14:02:26.240Z,80.90
2023-03-27T14:05:27.802Z,81.70
2023-03-27T14:08:33.641Z,80.00
2023-03-27T14:11:32.754Z,79.70
2023-03-27T14:14:20.551Z,79.50
2023-03-27T14:16:53.976Z,81.10
2023-03-27T14:19:45.237Z,79.80
2023-03-27T14:22:23.557Z,80.00
2023-03-27T14:25:00.635Z,82.40
2023-03-27T14:27:29.733Z,84.90
2023-03-27T14:30:16.738Z,84.50
2023-03-27T14:32:45.037Z,85.10
2023-03-27T14:35:33.132Z,87.20
2023-03-27T14:38:02.325Z,88.70
2023-03-27T14:40:31.105Z,89.60
2023-03-27T14:43:00.962Z,90.30
2023-03-27T14:45:33.212Z,89.20
2023-03-27T14:48:05.612Z,88.40
2023-03-27T14:50:34.616Z,88.60
2023-03-27T14:53:06.346Z,88.30
2023-03-27T14:55:35.982Z,87.00
2023-03-27T14:58:12.542Z,87.60
2023-03-27T15:00:41.240Z,88.00
2023-03-27T15:03:19.065Z,88.80
2023-03-27T15:06:00.979Z,89.50
2023-03-27T15:08:31.509Z,87.60
2023-03-27T15:10:58.914Z,90.00
2023-03-27T15:13:26.810Z,88.10
2023-03-27T15:15:59.360Z,83.90
2023-03-27T15:18:34.766Z,83.00
2023-03-27T15:21:12.222Z,85.60
2023-03-27T15:23:50.911Z,87.90
2023-03-27T15:26:26.208Z,95.50
2023-03-27T15:29:04.351Z,99.90
2023-03-27T15:31:34.158Z,99.90
2023-03-27T15:34:12.822Z,99.90
2023-03-27T15:36:43.536Z,99.90
2023-03-27T15:39:23.611Z,99.90
2023-03-27T15:42:03.818Z,99.90
2023-03-27T15:44:33.765Z,99.90
2023-03-27T15:47:01.554Z,99.90
2023-03-27T15:49:37.273Z,99.90
2023-03-27T15:52:33.585Z,99.90
2023-03-27T15:55:01.523Z,99.90
2023-03-27T15:57:31.896Z,99.90
2023-03-27T16:00:08.746Z,99.90
2023-03-27T16:02:36.414Z,99.90
2023-03-27T16:05:03.960Z,99.90
2023-03-27T16:07:48.634Z,99.90
2023-03-27T16:10:31.008Z,99.90
2023-03-27T16:13:02.949Z,99.90
2023-03-27T16:15:41.273Z,99.90
2023-03-27T16:18:17.385Z,99.90
2023-03-27T16:20:45.356Z,99.90
2023-03-27T16:23:13.067Z,99.90
2023-03-27T16:25:41.386Z,99.90
2023-03-27T16:28:10.041Z,99.90
2023-03-27T16:30:41.495Z,99.90
2023-03-27T16:33:21.764Z,99.90
2023-03-27T16:35:49.985Z,99.90
2023-03-27T16:38:18.195Z,99.90
2023-03-27T16:40:45.749Z,99.90
2023-03-27T16:43:13.425Z,99.90
2023-03-27T16:45:40.689Z,99.90
2023-03-27T16:48:08.910Z,99.90
2023-03-27T16:50:36.778Z,99.90
2023-03-27T16:53:03.951Z,99.90
2023-03-27T16:55:31.352Z,99.90
2023-03-27T16:57:58.542Z,99.90
2023-03-27T17:00:27.170Z,99.90
2023-03-27T17:02:54.721Z,99.90
2023-03-27T17:05:21.954Z,99.90
2023-03-27T17:07:49.162Z,99.90
2023-03-27T17:10:17.031Z,99.90
2023-03-27T17:12:44.320Z,99.90
2023-03-27T17:15:12.032Z,99.90
2023-03-27T17:17:39.315Z,99.90
2023-03-27T17:20:07.966Z,99.90
2023-03-27T17:22:35.278Z,99.90
2023-03-27T17:25:03.944Z,99.90
2023-03-27T17:27:31.623Z,99.90
2023-03-27T17:29:58.971Z,99.90
2023-03-27T17:32:27.034Z,99.90
2023-03-27T17:34:55.080Z,99.90
2023-03-27T17:37:22.763Z,99.90
2023-03-27T17:39:49.891Z,99.90
2023-03-27T17:42:16.968Z,99.90
2023-03-27T17:44:45.342Z,99.90
2023-03-27T17:47:13.032Z,99.90
2023-03-27T17:49:41.205Z,99.90
2023-03-27T17:52:11.432Z,99.90
2023-03-27T17:54:38.994Z,99.90
2023-03-27T17:57:06.707Z,99.90
2023-03-27T17:59:34.089Z,99.90
2023-03-27T18:02:01.469Z,99.90
2023-03-27T18:04:29.805Z,99.90
2023-03-27T18:06:57.455Z,99.90
2023-03-27T18:09:24.857Z,99.90
2023-03-27T18:11:52.462Z,99.90
2023-03-27T18:14:19.655Z,99.90
2023-03-27T18:16:46.806Z,99.90
2023-03-27T18:19:14.925Z,99.90
2023-03-27T18:21:42.107Z,99.90
2023-03-27T18:24:09.425Z,99.90
2023-03-27T18:26:37.093Z,99.90
2023-03-27T18:29:05.144Z,99.90
2023-03-27T18:31:32.197Z,99.90
2023-03-27T18:33:59.481Z,99.90
2023-03-27T18:36:27.497Z,99.90
2023-03-27T18:38:54.641Z,99.90
2023-03-27T18:41:21.633Z,99.90
2023-03-27T18:43:48.996Z,99.90
2023-03-27T18:46:19.046Z,99.90
2023-03-27T18:48:49.139Z,99.90
2023-03-27T18:51:18.930Z,99.90
2023-03-27T18:53:46.460Z,99.90
2023-03-27T18:56:14.107Z,99.90
2023-03-27T18:58:41.578Z,99.90
2023-03-27T19:01:09.717Z,99.90
2023-03-27T19:03:37.895Z,99.90
2023-03-27T19:06:07.681Z,99.90
2023-03-27T19:08:37.922Z,99.90
2023-03-27T19:11:06.445Z,99.90
2023-03-27T19:13:33.650Z,99.90
2023-03-27T19:16:01.377Z,99.90
2023-03-27T19:18:41.842Z,99.90
2023-03-27T19:21:09.105Z,99.90
2023-03-27T19:23:36.260Z,99.90
2023-03-27T19:26:12.977Z,99.90
2023-03-27T19:28:40.493Z,96.20
2023-03-27T19:31:10.440Z,94.40
2023-03-27T19:33:38.437Z,95.50
2023-03-27T19:36:06.219Z,95.10
2023-03-27T19:38:34.122Z,95.30
2023-03-27T19:41:02.399Z,93.10
2023-03-27T19:43:29.484Z,94.40
2023-03-27T19:46:15.018Z,94.90
2023-03-27T19:48:52.234Z,91.00
2023-03-27T19:51:26.649Z,88.00
2023-03-27T19:54:00.947Z,90.20
2023-03-27T19:56:28.615Z,86.20
2023-03-27T19:59:02.441Z,84.90
2023-03-27T20:01:36.371Z,85.80
2023-03-27T20:04:10.324Z,84.10
2023-03-27T20:06:44.753Z,83.70
2023-03-27T20:09:19.506Z,82.30
2023-03-27T20:11:53.975Z,82.20
2023-03-27T20:14:27.134Z,81.60
2023-03-27T20:17:01.437Z,81.50
2023-03-27T20:19:35.315Z,84.00
2023-03-27T20:22:11.593Z,83.00
2023-03-27T20:24:45.862Z,84.10
2023-03-27T20:27:23.945Z,83.00
2023-03-27T20:29:58.138Z,74.90
2023-03-27T20:32:32.296Z,79.70
2023-03-27T20:35:16.512Z,70.70
2023-03-27T20:38:01.044Z,76.40
2023-03-27T20:40:52.900Z,71.90
2023-03-27T20:43:27.998Z,76.10
2023-03-27T20:45:59.113Z,72.80
2023-03-27T20:48:27.039Z,74.60
2023-03-27T20:50:55.777Z,73.90
2023-03-27T20:53:31.689Z,75.60
2023-03-27T20:56:04.411Z,79.20
2023-03-27T20:58:39.619Z,77.10
2023-03-27T21:01:09.136Z,75.60
2023-03-27T21:03:42.833Z,71.40
2023-03-27T21:06:18.176Z,72.40
2023-03-27T21:08:53.065Z,72.80
2023-03-27T21:11:25.837Z,73.20
2023-03-27T21:13:57.529Z,74.80
2023-03-27T21:16:25.303Z,72.60
2023-03-27T21:18:52.362Z,69.50
2023-03-27T21:21:24.473Z,71.50
2023-03-27T21:23:54.775Z,71.50
2023-03-27T21:26:28.423Z,73.10
2023-03-27T21:28:56.414Z,72.10
2023-03-27T21:31:23.820Z,75.00
2023-03-27T21:33:54.779Z,74.90
2023-03-27T21:36:22.109Z,73.20
2023-03-27T21:38:52.357Z,73.00
2023-03-27T21:41:20.075Z,75.20
2023-03-27T21:43:47.181Z,74.30
2023-03-27T21:46:15.389Z,74.00
2023-03-27T21:48:46.092Z,72.90
2023-03-27T21:51:14.481Z,70.20
2023-03-27T21:53:42.782Z,74.40
2023-03-27T21:56:12.562Z,70.90
2023-03-27T21:58:39.894Z,71.40
2023-03-27T22:01:07.290Z,71.30
2023-03-27T22:03:34.491Z,71.00
2023-03-27T22:06:12.578Z,72.10
2023-03-27T22:08:43.324Z,67.80
2023-03-27T22:11:12.060Z,73.80
2023-03-27T22:13:39.969Z,69.70
2023-03-27T22:16:13.306Z,73.80
2023-03-27T22:18:40.637Z,75.40
2023-03-27T22:21:20.117Z,70.00
2023-03-27T22:23:49.085Z,72.70
2023-03-27T22:26:19.598Z,69.70
2023-03-27T22:28:47.411Z,66.40
2023-03-27T22:31:14.603Z,70.50
2023-03-27T22:33:41.965Z,71.40
2023-03-27T22:36:11.874Z,64.50
2023-03-27T22:38:39.716Z,66.30
2023-03-27T22:41:09.369Z,69.20
2023-03-27T22:43:36.674Z,68.40
2023-03-27T22:46:13.496Z,68.60
2023-03-27T22:48:41.307Z,68.60
2023-03-27T22:51:09.992Z,68.30
2023-03-27T22:53:38.167Z,65.30
2023-03-27T22:56:06.542Z,67.30
2023-03-27T22:58:34.174Z,68.60
2023-03-27T23:01:03.042Z,69.70
2023-03-27T23:03:30.313Z,68.90
2023-03-27T23:05:57.548Z,72.20
2023-03-27T23:08:28.532Z,72.40
2023-03-27T23:11:00.554Z,72.00
2023-03-27T23:13:29.796Z,71.90
2023-03-27T23:15:57.272Z,73.40
2023-03-27T23:18:25.485Z,74.00
2023-03-27T23:20:56.848Z,74.80
2023-03-27T23:23:24.836Z,75.90
2023-03-27T23:25:52.165Z,77.20
2023-03-27T23:28:19.803Z,78.00
2023-03-27T23:31:01.323Z,79.50
2023-03-27T23:33:32.959Z,82.50
2023-03-27T23:36:07.723Z,83.40
2023-03-27T23:38:35.534Z,83.00
2023-03-27T23:41:03.501Z,83.30
2023-03-27T23:43:32.167Z,83.10
2023-03-27T23:45:59.931Z,83.30
2023-03-27T23:48:31.602Z,83.30
2023-03-27T23:50:58.898Z,78.30
2023-03-27T23:53:27.935Z,76.70
2023-03-27T23:55:56.885Z,79.80
2023-03-27T23:58:28.896Z,73.50
